createdAt,value
2017-10-20T00:02:00.299Z,94603.27
2017-10-20T00:04:28.637Z,94601.42
2017-10-20T00:06:56.975Z,94601.44
2017-10-20T00:09:25.314Z,94596.64
2017-10-20T00:11:53.650Z,94602.79
2017-10-20T00:14:21.990Z,94598.38
2017-10-20T00:16:50.327Z,94600.91
2017-10-20T00:19:18.670Z,94603.27
2017-10-20T00:21:47.014Z,94602.59
2017-10-20T00:24:15.350Z,94602.62
2017-10-20T00:26:43.722Z,94602.53
2017-10-20T00:29:12.054Z,94603.00
2017-10-20T00:31:40.392Z,94602.91
2017-10-20T00:34:08.731Z,94603.77
2017-10-20T00:36:37.074Z,94609.07
2017-10-20T00:39:05.416Z,94608.88
2017-10-20T00:41:33.750Z,94603.77
2017-10-20T00:44:02.091Z,94596.45
2017-10-20T00:46:30.431Z,94599.31
2017-10-20T00:48:59.011Z,94608.62
2017-10-20T00:51:27.446Z,94605.48
2017-10-20T00:53:55.786Z,94609.98
2017-10-20T00:56:24.156Z,94610.47
2017-10-20T00:58:52.496Z,94603.56
2017-10-20T01:01:20.830Z,94610.36
2017-10-20T01:03:49.175Z,94604.05
2017-10-20T01:06:17.518Z,94607.44
2017-10-20T01:08:45.895Z,94604.00
2017-10-20T01:11:14.230Z,94609.81
2017-10-20T01:13:42.583Z,94609.66
2017-10-20T01:16:10.922Z,94601.12
2017-10-20T01:18:39.266Z,94603.02
2017-10-20T01:21:07.610Z,94595.61
2017-10-20T01:23:35.955Z,94602.96
2017-10-20T01:26:04.295Z,94599.97
2017-10-20T01:28:32.634Z,94598.34
2017-10-20T01:31:00.976Z,94599.58
2017-10-20T01:33:29.310Z,94593.98
2017-10-20T01:35:57.647Z,94595.23
2017-10-20T01:38:25.990Z,94592.31
2017-10-20T01:40:54.323Z,94599.41
2017-10-20T01:43:22.668Z,94598.07
2017-10-20T01:45:51.084Z,94603.45
2017-10-20T01:48:19.455Z,94594.63
2017-10-20T01:50:47.802Z,94598.92
2017-10-20T01:53:16.997Z,94602.56
2017-10-20T01:55:45.367Z,94599.84
2017-10-20T01:58:13.703Z,94593.02
2017-10-20T02:00:42.062Z,94594.97
2017-10-20T02:03:10.414Z,94582.19
2017-10-20T02:05:38.784Z,94582.69
2017-10-20T02:08:07.148Z,94581.59
2017-10-20T02:10:35.535Z,94577.45
2017-10-20T02:13:03.882Z,94576.53
2017-10-20T02:15:32.243Z,94575.95
2017-10-20T02:18:00.595Z,94575.45
2017-10-20T02:20:28.939Z,94570.63
2017-10-20T02:22:57.275Z,94566.56
2017-10-20T02:25:25.615Z,94572.59
2017-10-20T02:27:53.955Z,94560.48
2017-10-20T02:30:22.323Z,94552.64
2017-10-20T02:32:50.675Z,94551.39
2017-10-20T02:35:19.039Z,94556.20
2017-10-20T02:37:47.391Z,94550.13
2017-10-20T02:40:15.727Z,94547.55
2017-10-20T02:42:44.071Z,94544.16
2017-10-20T02:45:12.418Z,94541.70
2017-10-20T02:47:40.758Z,94536.99
2017-10-20T02:50:09.102Z,94540.56
2017-10-20T02:52:37.445Z,94534.67
2017-10-20T02:55:05.783Z,94538.34
2017-10-20T02:57:34.147Z,94536.26
2017-10-20T03:00:02.492Z,94535.52
2017-10-20T03:02:30.831Z,94536.63
2017-10-20T03:04:59.171Z,94535.32
2017-10-20T03:07:27.516Z,94529.05
2017-10-20T03:09:55.854Z,94530.42
2017-10-20T03:12:24.273Z,94524.08
2017-10-20T03:14:52.606Z,94519.57
2017-10-20T03:17:20.942Z,94519.86
2017-10-20T03:19:49.343Z,94512.36
2017-10-20T03:22:17.668Z,94508.32
2017-10-20T03:24:46.015Z,94511.30
2017-10-20T03:27:14.358Z,94513.84
2017-10-20T03:29:42.698Z,94509.48
2017-10-20T03:32:11.061Z,94510.47
2017-10-20T03:34:39.407Z,94519.78
2017-10-20T03:37:07.741Z,94513.92
2017-10-20T03:39:36.078Z,94506.54
2017-10-20T03:42:04.459Z,94508.11
2017-10-20T03:44:32.796Z,94507.02
2017-10-20T03:47:01.140Z,94506.53
2017-10-20T03:49:29.478Z,94502.46
2017-10-20T03:51:57.837Z,94504.55
2017-10-20T03:54:26.176Z,94503.32
2017-10-20T03:56:54.514Z,94501.10
2017-10-20T03:59:22.846Z,94500.89
2017-10-20T04:01:51.190Z,94500.11
2017-10-20T04:04:19.520Z,94497.97
2017-10-20T04:06:47.898Z,94498.86
2017-10-20T04:09:16.238Z,94499.48
2017-10-20T04:11:44.569Z,94498.27
2017-10-20T04:14:12.910Z,94503.70
2017-10-20T04:16:41.245Z,94501.65
2017-10-20T04:19:09.614Z,94499.59
2017-10-20T04:21:37.954Z,94494.44
2017-10-20T04:24:06.303Z,94492.80
2017-10-20T04:26:34.634Z,94496.91
2017-10-20T04:29:02.987Z,94490.37
2017-10-20T04:31:31.330Z,94496.73
2017-10-20T04:33:59.675Z,94493.19
2017-10-20T04:36:28.031Z,94497.41
2017-10-20T04:38:56.407Z,94497.32
2017-10-20T04:41:24.783Z,94492.77
2017-10-20T04:43:53.140Z,94493.75
2017-10-20T04:46:21.480Z,94492.04
2017-10-20T04:48:49.824Z,94488.64
2017-10-20T04:51:18.304Z,94483.43
2017-10-20T04:53:46.639Z,94484.70
2017-10-20T04:56:14.971Z,94477.89
2017-10-20T04:58:43.311Z,94474.73
2017-10-20T05:01:11.657Z,94478.44
2017-10-20T05:03:39.992Z,94475.73
2017-10-20T05:06:08.343Z,94470.95
2017-10-20T05:08:36.688Z,94475.27
2017-10-20T05:11:05.032Z,94469.85
2017-10-20T05:13:33.378Z,94475.64
2017-10-20T05:16:01.710Z,94470.20
2017-10-20T05:18:30.050Z,94476.88
2017-10-20T05:20:58.395Z,94478.27
2017-10-20T05:23:26.730Z,94478.16
2017-10-20T05:25:55.085Z,94473.63
2017-10-20T05:28:23.431Z,94468.39
2017-10-20T05:30:51.767Z,94478.91
2017-10-20T05:33:20.107Z,94477.91
2017-10-20T05:35:48.491Z,94473.59
2017-10-20T05:38:16.828Z,94471.84
2017-10-20T05:40:45.173Z,94471.81
2017-10-20T05:43:13.510Z,94465.91
2017-10-20T05:45:41.860Z,94466.81
2017-10-20T05:48:10.881Z,94467.98
2017-10-20T05:50:39.231Z,94466.29
2017-10-20T05:53:07.577Z,94460.89
2017-10-20T05:55:36.324Z,94462.04
2017-10-20T05:58:06.423Z,94467.18
2017-10-20T06:00:34.758Z,94458.66
2017-10-20T06:03:03.108Z,94460.81
2017-10-20T06:05:31.463Z,94465.84
2017-10-20T06:07:59.818Z,94463.33
2017-10-20T06:10:28.191Z,94459.70
2017-10-20T06:12:56.553Z,94462.16
2017-10-20T06:15:24.903Z,94464.44
2017-10-20T06:17:53.243Z,94463.72
2017-10-20T06:20:21.584Z,94453.49
2017-10-20T06:22:50.143Z,94455.66
2017-10-20T06:25:18.487Z,94455.65
2017-10-20T06:27:46.843Z,94448.13
2017-10-20T06:30:15.219Z,94450.28
2017-10-20T06:32:43.586Z,94452.52
2017-10-20T06:35:11.954Z,94456.51
2017-10-20T06:37:40.302Z,94460.02
2017-10-20T06:40:08.638Z,94463.58
2017-10-20T06:42:36.992Z,94466.91
2017-10-20T06:45:05.332Z,94464.64
2017-10-20T06:47:33.666Z,94467.06
2017-10-20T06:50:02.050Z,94469.22
2017-10-20T06:52:30.387Z,94467.68
2017-10-20T06:54:58.732Z,94470.17
2017-10-20T06:57:27.075Z,94467.61
2017-10-20T06:59:55.406Z,94472.56
2017-10-20T07:02:23.749Z,94481.38
2017-10-20T07:04:52.100Z,94475.67
2017-10-20T07:07:20.456Z,94482.09
2017-10-20T07:09:48.803Z,94489.38
2017-10-20T07:12:17.146Z,94491.13
2017-10-20T07:14:45.483Z,94485.45
2017-10-20T07:17:13.822Z,94489.49
2017-10-20T07:19:46.103Z,94484.73
2017-10-20T07:22:14.443Z,94502.59
2017-10-20T07:24:42.779Z,94503.92
2017-10-20T07:27:11.147Z,94497.99
2017-10-20T07:29:39.538Z,94512.39
2017-10-20T07:32:07.885Z,94522.55
2017-10-20T07:34:36.266Z,94526.92
2017-10-20T07:37:04.604Z,94526.39
2017-10-20T07:39:32.943Z,94528.35
2017-10-20T07:42:01.307Z,94520.83
2017-10-20T07:44:29.659Z,94521.30
2017-10-20T07:46:58.057Z,94530.61
2017-10-20T07:49:26.395Z,94537.19
2017-10-20T07:51:54.734Z,94530.58
2017-10-20T07:54:23.119Z,94537.59
2017-10-20T07:56:51.482Z,94542.30
2017-10-20T07:59:19.858Z,94538.80
2017-10-20T08:01:48.235Z,94543.23
2017-10-20T08:04:16.583Z,94536.64
2017-10-20T08:06:44.959Z,94561.48
2017-10-20T08:09:13.445Z,94554.58
2017-10-20T08:11:41.791Z,94566.55
2017-10-20T08:14:10.156Z,94570.27
2017-10-20T08:16:38.522Z,94565.08
2017-10-20T08:19:06.881Z,94562.58
2017-10-20T08:21:35.264Z,94563.25
2017-10-20T08:24:03.615Z,94565.84
2017-10-20T08:26:31.995Z,94556.80
2017-10-20T08:29:00.375Z,94565.98
2017-10-20T08:31:28.896Z,94553.42
2017-10-20T08:33:57.247Z,94562.23
2017-10-20T08:36:25.623Z,94567.20
2017-10-20T08:38:53.987Z,94556.80
2017-10-20T08:41:22.355Z,94536.23
2017-10-20T08:43:50.858Z,94532.59
2017-10-20T08:46:19.206Z,94518.70
2017-10-20T08:48:47.562Z,94538.78
2017-10-20T08:51:15.940Z,94543.22
2017-10-20T08:53:44.278Z,94535.16
2017-10-20T08:56:12.669Z,94518.17
2017-10-20T08:58:41.024Z,94539.51
2017-10-20T09:01:09.377Z,94530.36
2017-10-20T09:03:37.760Z,94514.78
2017-10-20T09:06:06.110Z,94503.72
2017-10-20T09:08:34.468Z,94492.66
2017-10-20T09:11:02.855Z,94494.29
2017-10-20T09:13:31.410Z,94499.34
2017-10-20T09:15:59.791Z,94495.75
2017-10-20T09:18:29.097Z,94482.08
2017-10-20T09:20:57.479Z,94486.55
2017-10-20T09:23:25.820Z,94502.77
2017-10-20T09:25:54.165Z,94501.48
2017-10-20T09:28:22.539Z,94496.98
2017-10-20T09:30:50.906Z,94498.06
2017-10-20T09:33:19.287Z,94497.95
2017-10-20T09:35:47.631Z,94496.84
2017-10-20T09:38:15.979Z,94496.86
2017-10-20T09:40:44.408Z,94494.07
2017-10-20T09:43:12.802Z,94480.55
2017-10-20T09:45:41.182Z,94485.27
2017-10-20T09:48:09.527Z,94481.94
2017-10-20T09:50:37.906Z,94478.84
2017-10-20T09:53:06.251Z,94472.53
2017-10-20T09:55:34.705Z,94472.69
2017-10-20T09:58:03.135Z,94464.81
2017-10-20T10:00:31.482Z,94465.09
2017-10-20T10:02:59.947Z,94459.91
2017-10-20T10:05:28.302Z,94484.17
2017-10-20T10:07:56.683Z,94475.70
2017-10-20T10:10:25.036Z,94460.80
2017-10-20T10:12:53.386Z,94471.81
2017-10-20T10:15:21.727Z,94451.87
2017-10-20T10:17:50.095Z,94455.40
2017-10-20T10:20:18.479Z,94450.23
2017-10-20T10:22:46.978Z,94460.30
2017-10-20T10:25:15.622Z,94467.61
2017-10-20T10:27:44.003Z,94452.95
2017-10-20T10:30:12.383Z,94457.38
2017-10-20T10:32:40.731Z,94455.47
2017-10-20T10:35:09.123Z,94454.50
2017-10-20T10:37:37.459Z,94464.58
2017-10-20T10:40:05.807Z,94465.72
2017-10-20T10:42:34.147Z,94470.95
2017-10-20T10:45:02.532Z,94459.30
2017-10-20T10:47:30.882Z,94440.11
2017-10-20T10:49:59.232Z,94443.33
2017-10-20T10:52:27.582Z,94443.81
2017-10-20T10:54:55.970Z,94430.82
2017-10-20T10:57:24.360Z,94431.46
2017-10-20T10:59:53.926Z,94434.70
2017-10-20T11:02:22.421Z,94436.88
2017-10-20T11:04:50.866Z,94431.80
2017-10-20T11:07:30.980Z,94435.44
2017-10-20T11:10:11.090Z,94433.73
2017-10-20T11:12:40.303Z,94425.38
2017-10-20T11:15:08.683Z,94420.88
2017-10-20T11:17:37.066Z,94411.97
2017-10-20T11:20:05.432Z,94415.89
2017-10-20T11:22:33.783Z,94422.23
2017-10-20T11:25:02.183Z,94422.13
2017-10-20T11:27:30.534Z,94419.85
2017-10-20T11:29:58.870Z,94420.63
2017-10-20T11:32:27.222Z,94425.80
2017-10-20T11:34:55.579Z,94419.44
2017-10-20T11:37:23.958Z,94432.36
2017-10-20T11:39:52.307Z,94421.55
2017-10-20T11:42:20.689Z,94430.08
2017-10-20T11:44:49.070Z,94422.05
2017-10-20T11:47:17.456Z,94421.23
2017-10-20T11:49:45.855Z,94437.08
2017-10-20T11:52:14.270Z,94431.70
2017-10-20T11:57:08.982Z,94438.88
2017-10-20T11:59:37.310Z,94436.61
2017-10-20T12:02:05.699Z,94436.17
2017-10-20T12:04:34.034Z,94442.34
2017-10-20T12:07:02.372Z,94454.96
2017-10-20T12:09:30.709Z,94439.08
2017-10-20T12:11:59.102Z,94446.58
2017-10-20T12:14:27.452Z,94448.98
2017-10-20T12:16:55.830Z,94443.16
2017-10-20T12:19:24.176Z,94440.39
2017-10-20T12:21:52.511Z,94451.38
2017-10-20T12:24:20.851Z,94449.47
2017-10-20T12:26:49.216Z,94439.77
2017-10-20T12:29:17.639Z,94442.22
2017-10-20T12:31:45.975Z,94439.07
2017-10-20T12:34:14.340Z,94450.78
2017-10-20T12:36:42.678Z,94451.08
2017-10-20T12:39:11.031Z,94453.48
2017-10-20T12:41:39.394Z,94469.55
2017-10-20T12:44:08.664Z,94466.84
2017-10-20T12:46:37.022Z,94479.69
2017-10-20T12:49:05.360Z,94474.98
2017-10-20T12:51:33.700Z,94484.97
2017-10-20T12:54:02.058Z,94474.00
2017-10-20T12:56:31.023Z,94472.91
2017-10-20T12:58:59.371Z,94477.38
2017-10-20T13:01:27.754Z,94487.91
2017-10-20T13:03:56.092Z,94491.16
2017-10-20T13:06:24.447Z,94498.92
2017-10-20T13:08:52.795Z,94491.69
2017-10-20T13:11:21.147Z,94488.63
2017-10-20T13:13:49.484Z,94497.61
2017-10-20T13:16:17.819Z,94502.73
2017-10-20T13:18:46.160Z,94506.81
2017-10-20T13:21:14.523Z,94506.20
2017-10-20T13:23:42.900Z,94506.19
2017-10-20T13:26:11.232Z,94505.19
2017-10-20T13:28:39.595Z,94510.08
2017-10-20T13:31:07.974Z,94504.61
2017-10-20T13:33:36.329Z,94509.50
2017-10-20T13:36:04.758Z,94515.96
2017-10-20T13:38:33.126Z,94513.56
2017-10-20T13:41:01.513Z,94504.62
2017-10-20T13:46:04.314Z,94509.72
2017-10-20T13:48:32.691Z,94516.34
2017-10-20T13:51:01.036Z,94522.58
2017-10-20T13:53:29.383Z,94514.55
2017-10-20T13:55:57.791Z,94517.34
2017-10-20T13:58:26.163Z,94514.14
2017-10-20T14:00:54.519Z,94520.45
2017-10-20T14:03:22.892Z,94517.50
2017-10-20T14:05:51.476Z,94517.46
2017-10-20T14:08:19.887Z,94529.70
2017-10-20T14:10:48.235Z,94524.55
2017-10-20T14:13:16.590Z,94529.41
2017-10-20T14:15:44.952Z,94524.50
2017-10-20T14:18:13.412Z,94533.41
2017-10-20T14:20:41.750Z,94536.69
2017-10-20T14:23:10.095Z,94547.03
2017-10-20T14:25:38.429Z,94541.11
2017-10-20T14:28:06.769Z,94542.94
2017-10-20T14:30:35.149Z,94553.48
2017-10-20T14:33:03.487Z,94558.96
2017-10-20T14:35:31.842Z,94553.23
2017-10-20T14:38:00.183Z,94562.11
2017-10-20T14:40:28.554Z,94561.44
2017-10-20T14:42:56.922Z,94568.07
2017-10-20T14:45:25.259Z,94569.77
2017-10-20T14:47:53.601Z,94564.73
2017-10-20T14:50:21.933Z,94567.80
2017-10-20T14:52:50.655Z,94577.76
2017-10-20T14:55:19.551Z,94574.78
2017-10-20T14:57:48.486Z,94575.41
2017-10-20T15:00:17.990Z,94580.84
2017-10-20T15:02:47.455Z,94572.39
2017-10-20T15:05:16.238Z,94575.72
2017-10-20T15:07:46.065Z,94580.54
2017-10-20T15:10:15.698Z,94577.92
2017-10-20T15:12:44.462Z,94584.69
2017-10-20T15:15:14.190Z,94581.32
2017-10-20T15:17:43.547Z,94586.00
2017-10-20T15:20:12.499Z,94581.02
2017-10-20T15:22:42.124Z,94583.97
2017-10-20T15:25:11.006Z,94582.17
2017-10-20T15:27:39.964Z,94586.22
2017-10-20T15:30:09.262Z,94578.32
2017-10-20T15:32:38.058Z,94575.73
2017-10-20T15:35:07.399Z,94577.83
2017-10-20T15:37:37.998Z,94580.92
2017-10-20T15:40:06.938Z,94585.06
2017-10-20T15:42:35.582Z,94581.03
2017-10-20T15:45:05.901Z,94590.89
2017-10-20T15:47:35.323Z,94593.88
2017-10-20T15:50:04.151Z,94595.43
2017-10-20T15:52:32.985Z,94596.45
2017-10-20T15:55:02.672Z,94602.15
2017-10-20T15:57:31.432Z,94598.94
2017-10-20T16:00:00.075Z,94605.56
2017-10-20T16:02:30.261Z,94605.31
2017-10-20T16:04:59.060Z,94610.35
2017-10-20T16:07:27.909Z,94615.03
2017-10-20T16:09:56.649Z,94618.38
2017-10-20T16:12:25.603Z,94616.70
2017-10-20T16:14:55.400Z,94618.28
2017-10-20T16:17:25.043Z,94621.77
2017-10-20T16:19:53.712Z,94627.08
2017-10-20T16:22:22.773Z,94626.56
2017-10-20T16:24:52.100Z,94633.55
2017-10-20T16:27:20.887Z,94625.13
2017-10-20T16:29:49.913Z,94624.09
2017-10-20T16:32:20.385Z,94623.55
2017-10-20T16:34:49.161Z,94618.25
2017-10-20T16:37:18.821Z,94632.89
2017-10-20T16:39:49.875Z,94635.58
2017-10-20T16:42:19.689Z,94637.63
2017-10-20T16:44:48.411Z,94628.48
2017-10-20T16:47:18.100Z,94628.81
2017-10-20T16:49:47.640Z,94635.35
2017-10-20T16:52:18.568Z,94639.56
2017-10-20T16:54:48.153Z,94635.50
2017-10-20T16:57:18.671Z,94635.52
2017-10-20T16:59:47.844Z,94636.94
2017-10-20T17:02:16.537Z,94641.70
2017-10-20T17:04:45.451Z,94638.48
2017-10-20T17:07:14.063Z,94639.76
2017-10-20T17:09:44.926Z,94644.09
2017-10-20T17:12:14.681Z,94643.06
2017-10-20T17:14:43.521Z,94647.20
2017-10-20T17:17:12.380Z,94649.02
2017-10-20T17:19:41.861Z,94656.66
2017-10-20T17:22:10.712Z,94660.08
2017-10-20T17:24:39.213Z,94660.48
2017-10-20T17:27:07.819Z,94666.02
2017-10-20T17:29:37.207Z,94667.87
2017-10-20T17:32:05.954Z,94666.92
2017-10-20T17:34:37.695Z,94658.28
2017-10-20T17:37:07.443Z,94665.59
2017-10-20T17:39:36.357Z,94665.37
2017-10-20T17:42:05.066Z,94666.77
2017-10-20T17:44:34.137Z,94667.07
2017-10-20T17:47:02.982Z,94662.81
2017-10-20T17:49:33.020Z,94662.83
2017-10-20T17:52:02.375Z,94662.77
2017-10-20T17:54:31.166Z,94673.91
2017-10-20T17:57:00.196Z,94672.79
2017-10-20T17:59:29.857Z,94679.34
2017-10-20T18:01:58.860Z,94682.88
2017-10-20T18:04:27.939Z,94678.78
2017-10-20T18:06:56.727Z,94682.83
2017-10-20T18:09:27.437Z,94685.31
2017-10-20T18:11:56.256Z,94688.81
2017-10-20T18:14:25.117Z,94691.82
2017-10-20T18:16:54.041Z,94686.14
2017-10-20T18:19:22.976Z,94683.68
2017-10-20T18:21:52.697Z,94688.91
2017-10-20T18:24:23.235Z,94687.98
2017-10-20T18:26:52.157Z,94691.58
2017-10-20T18:29:21.135Z,94679.53
2017-10-20T18:31:49.673Z,94692.66
2017-10-20T19:56:18.891Z,94753.88
2017-10-20T19:58:47.580Z,94763.09
2017-10-20T20:01:16.342Z,94766.30
2017-10-20T20:03:46.104Z,94765.27
2017-10-20T20:06:15.060Z,94774.16
2017-10-20T20:08:44.712Z,94774.64
2017-10-20T20:11:14.110Z,94781.70
2017-10-20T20:13:42.825Z,94778.97
2017-10-20T20:16:11.639Z,94779.74
2017-10-20T20:18:40.682Z,94780.67
2017-10-20T20:21:09.759Z,94780.13
2017-10-20T20:23:39.138Z,94784.81
2017-10-20T20:26:10.803Z,94784.84
2017-10-20T20:28:39.863Z,94776.06
2017-10-20T20:31:19.369Z,94768.79
2017-10-20T20:33:49.351Z,94767.37
2017-10-20T20:36:18.042Z,94759.65
2017-10-20T20:38:48.076Z,94762.30
2017-10-20T20:41:16.859Z,94754.41
2017-10-20T20:43:45.273Z,94764.86
2017-10-20T20:46:13.634Z,94774.45
2017-10-20T20:48:41.971Z,94779.17
2017-10-20T20:51:10.313Z,94771.16
2017-10-20T20:53:38.691Z,94775.30
2017-10-20T20:56:07.056Z,94768.48
2017-10-20T20:58:35.533Z,94771.91
2017-10-20T21:01:03.913Z,94768.06
2017-10-20T21:03:32.247Z,94768.03
2017-10-20T21:06:00.591Z,94769.32
2017-10-20T21:08:28.936Z,94761.62
2017-10-20T21:10:57.274Z,94757.62
2017-10-20T21:13:25.617Z,94763.30
2017-10-20T21:15:54.001Z,94754.64
2017-10-20T21:18:22.335Z,94753.64
2017-10-20T21:20:50.723Z,94754.77
2017-10-20T21:23:19.073Z,94756.81
2017-10-20T21:25:47.435Z,94754.06
2017-10-20T21:28:15.773Z,94756.78
2017-10-20T21:30:44.116Z,94756.29
2017-10-20T21:33:12.478Z,94754.19
2017-10-20T21:35:41.086Z,94749.53
2017-10-20T21:38:09.439Z,94749.86
2017-10-20T21:40:37.794Z,94742.75
2017-10-20T21:43:06.135Z,94748.92
2017-10-20T21:45:34.510Z,94754.77
2017-10-20T21:48:02.851Z,94748.02
2017-10-20T21:50:31.229Z,94748.40
2017-10-20T21:52:59.583Z,94751.25
2017-10-20T21:55:27.926Z,94752.30
2017-10-20T21:57:56.273Z,94746.88
2017-10-20T22:00:24.629Z,94743.66
2017-10-20T22:02:53.231Z,94743.67
2017-10-20T22:05:21.596Z,94743.44
2017-10-20T22:07:49.952Z,94743.23
2017-10-20T22:10:18.447Z,94750.48
2017-10-20T22:12:46.944Z,94754.23
2017-10-20T22:15:15.289Z,94753.88
2017-10-20T22:17:43.636Z,94752.03
2017-10-20T22:20:11.984Z,94756.68
2017-10-20T22:22:40.338Z,94763.26
2017-10-20T22:25:08.684Z,94761.27
2017-10-20T22:27:37.096Z,94757.11
2017-10-20T22:30:05.441Z,94759.59
2017-10-20T22:32:33.779Z,94770.39
2017-10-20T22:35:02.141Z,94766.62
2017-10-20T22:37:30.474Z,94765.19
2017-10-20T22:39:58.814Z,94771.91
2017-10-20T22:42:27.187Z,94770.67
2017-10-20T22:44:55.522Z,94770.37
2017-10-20T22:47:23.871Z,94769.55
2017-10-20T22:49:52.209Z,94781.25
2017-10-20T22:52:20.543Z,94770.49
2017-10-20T22:54:48.940Z,94782.51
2017-10-20T22:57:17.282Z,94776.78
2017-10-20T22:59:45.604Z,94779.04
2017-10-20T23:02:14.086Z,94790.67
2017-10-20T23:04:42.414Z,94780.31
2017-10-20T23:07:10.774Z,94790.05
2017-10-20T23:09:39.110Z,94788.51
2017-10-20T23:12:07.466Z,94791.78
2017-10-20T23:14:35.805Z,94791.10
2017-10-20T23:17:04.212Z,94793.09
2017-10-20T23:19:32.555Z,94791.55
2017-10-20T23:22:00.910Z,94802.28
2017-10-20T23:24:29.266Z,94798.00
2017-10-20T23:26:57.632Z,94799.23
2017-10-20T23:29:25.991Z,94796.52
2017-10-20T23:31:54.324Z,94799.44
2017-10-20T23:34:22.976Z,94792.96
2017-10-20T23:36:51.314Z,94796.42
2017-10-20T23:39:19.658Z,94792.36
2017-10-20T23:41:48.019Z,94781.75
2017-10-20T23:44:16.390Z,94789.60
2017-10-20T23:46:44.739Z,94787.90
2017-10-20T23:49:13.151Z,94785.89
2017-10-20T23:51:41.507Z,94790.16
2017-10-20T23:54:09.850Z,94792.79
2017-10-20T23:56:38.187Z,94796.75
2017-10-20T23:59:06.523Z,94792.34
